Time;durP1;ratioP1;P1;durP2;ratioP2;P2;SDS_P1;SDS_P2;PMS_P1;PMS_P2;Temp;Humidity;BMP_temperature;BMP_pressure;BME280_temperature;BME280_humidity;BME280_pressure;Samples;Min_cycle;Max_cycle;Signal;HPM_P1;HPM_P2
2022/03/13 00:00:49;;;;;;;8.40;5.53;;;;;;;2.20;38.50;99056.72;5133805;27;40249;-75
2022/03/13 00:03:26;;;;;;;8.70;5.70;;;;;;;2.14;38.18;99062.09;5069202;27;1322399;-74
2022/03/13 00:05:54;;;;;;;7.43;4.53;;;;;;;2.08;37.99;99054.41;5134089;27;43763;-75
2022/03/13 00:08:27;;;;;;;8.23;5.43;;;;;;;2.06;37.73;99064.03;5169774;27;42935;-74
2022/03/13 00:10:57;;;;;;;9.40;5.47;;;;;;;2.01;37.72;99055.44;5132108;27;40136;-75
2022/03/13 00:13:30;;;;;;;8.07;5.57;;;;;;;1.96;38.54;99057.34;5134068;27;42721;-75
2022/03/13 00:15:59;;;;;;;12.50;5.80;;;;;;;1.87;39.35;99041.88;5132577;27;44055;-75
2022/03/13 00:18:27;;;;;;;7.40;5.13;;;;;;;1.91;39.06;99051.34;5135134;27;42520;-75
2022/03/13 00:21:04;;;;;;;6.70;4.60;;;;;;;1.88;39.24;99049.66;5135602;27;39857;-75
2022/03/13 00:23:32;;;;;;;8.37;4.80;;;;;;;1.86;39.75;99046.22;5134327;27;41736;-75
2022/03/13 00:26:00;;;;;;;10.33;5.50;;;;;;;1.86;40.29;99041.00;5153686;27;43805;-75
2022/03/13 00:28:29;;;;;;;7.60;5.07;;;;;;;1.85;40.40;99038.47;5151945;27;43978;-75
2022/03/13 00:31:03;;;;;;;7.57;5.60;;;;;;;1.83;40.14;99040.25;5132080;27;39896;-75
2022/03/13 00:33:30;;;;;;;8.57;5.33;;;;;;;1.82;40.51;99034.16;5153318;27;41911;-74
2022/03/13 00:35:58;;;;;;;9.33;5.70;;;;;;;1.81;40.36;99037.66;5153609;27;42777;-75
2022/03/13 00:38:26;;;;;;;6.70;4.57;;;;;;;1.73;40.32;99022.16;5134602;27;41411;-75
2022/03/13 00:40:54;;;;;;;5.90;4.17;;;;;;;1.81;40.11;99032.44;5134887;27;40072;-75
2022/03/13 00:43:23;;;;;;;9.60;5.10;;;;;;;1.82;40.12;99038.53;5134880;27;41643;-74
2022/03/13 00:45:52;;;;;;;6.43;4.50;;;;;;;1.80;40.21;99031.59;5117581;27;43537;-75
2022/03/13 00:48:20;;;;;;;6.13;4.60;;;;;;;1.78;40.34;99032.50;5134178;27;41365;-74
2022/03/13 00:50:48;;;;;;;8.30;5.53;;;;;;;1.74;40.62;99015.19;5134792;27;40983;-74
2022/03/13 00:53:15;;;;;;;8.57;4.93;;;;;;;1.80;40.53;99020.28;5134460;27;42632;-75
2022/03/13 00:55:44;;;;;;;8.20;4.43;;;;;;;1.85;40.54;99028.03;5134868;27;43694;-75
2022/03/13 00:58:11;;;;;;;9.97;5.83;;;;;;;1.77;40.74;99005.53;5134688;27;43250;-75
2022/03/13 01:00:39;;;;;;;9.60;5.20;;;;;;;1.87;40.50;99029.66;5153175;27;39911;-75
2022/03/13 01:03:17;;;;;;;8.90;5.67;;;;;;;1.87;40.31;99034.03;5134033;27;41668;-75
2022/03/13 01:05:52;;;;;;;9.10;4.80;;;;;;;1.86;40.78;99025.34;5134162;27;41682;-74
2022/03/13 01:08:19;;;;;;;9.10;5.10;;;;;;;1.86;40.22;99025.34;5134247;27;42257;-75
2022/03/13 01:10:50;;;;;;;6.73;4.40;;;;;;;1.87;40.00;99031.41;5153160;27;41202;-75
2022/03/13 01:13:18;;;;;;;7.33;4.60;;;;;;;1.84;39.70;99026.28;5134199;27;43723;-75
2022/03/13 01:15:57;;;;;;;7.97;4.80;;;;;;;1.84;39.46;99037.59;5131350;27;42761;-75
2022/03/13 01:18:26;;;;;;;6.43;4.17;;;;;;;1.83;39.34;99029.81;5152101;27;42213;-74
2022/03/13 01:20:53;;;;;;;7.47;4.43;;;;;;;1.80;39.72;99023.75;5116789;27;40360;-75
2022/03/13 01:23:21;;;;;;;11.50;4.60;;;;;;;1.76;40.51;99016.88;5151931;27;41693;-74
2022/03/13 01:26:19;;;;;;;9.80;5.87;;;;;;;1.70;40.20;99014.44;5116716;27;42880;-75
2022/03/13 01:28:47;;;;;;;6.53;4.40;;;;;;;1.66;39.93;99018.00;5116556;27;41195;-75
2022/03/13 01:31:14;;;;;;;7.20;4.30;;;;;;;1.26;39.56;98971.13;5134550;27;39922;-75
2022/03/13 01:33:44;;;;;;;5.87;4.37;;;;;;;1.59;39.83;99013.84;5152707;27;41779;-75
2022/03/13 01:36:12;;;;;;;6.50;4.53;;;;;;;1.55;40.78;99019.16;5116935;27;43011;-74
2022/03/13 01:38:41;;;;;;;7.27;5.40;;;;;;;1.52;41.00;99014.00;5168440;27;42317;-75
2022/03/13 01:41:09;;;;;;;7.03;5.10;;;;;;;1.50;40.50;99016.66;5152611;27;40951;-74
2022/03/13 01:43:37;;;;;;;6.80;4.63;;;;;;;1.48;40.36;99008.03;5134015;27;41680;-75
2022/03/13 01:46:05;;;;;;;6.07;4.43;;;;;;;1.44;39.89;99001.16;5133808;27;41892;-74
2022/03/13 01:48:51;;;;;;;6.30;3.83;;;;;;;1.48;40.28;98997.59;5133945;27;40697;-75
2022/03/13 01:51:20;;;;;;;8.47;5.10;;;;;;;1.49;40.13;99004.50;5116848;27;39365;-75
2022/03/13 01:53:52;;;;;;;6.10;4.23;;;;;;;1.50;40.26;98994.91;5148094;27;41889;-75
2022/03/13 01:56:20;;;;;;;10.40;5.03;;;;;;;1.49;40.31;99001.88;5116064;27;43263;-75
2022/03/13 01:58:51;;;;;;;7.53;4.90;;;;;;;1.49;40.42;98998.41;5133372;27;42253;-75
2022/03/13 02:01:20;;;;;;;6.20;4.53;;;;;;;1.49;40.57;98988.84;5133732;27;38597;-74
2022/03/13 02:03:48;;;;;;;9.43;4.97;;;;;;;1.48;40.39;98987.16;5151618;27;41773;-74
2022/03/13 02:06:17;;;;;;;5.97;4.23;;;;;;;1.48;40.43;98987.16;5133602;27;41898;-73
2022/03/13 02:08:50;;;;;;;6.77;3.90;;;;;;;1.49;40.36;98977.53;5116580;27;41838;-74
2022/03/13 02:11:19;;;;;;;7.10;4.70;;;;;;;1.48;40.48;98976.72;5116305;27;39892;-75
2022/03/13 02:13:50;;;;;;;7.43;4.47;;;;;;;1.49;40.68;98974.91;5133601;27;41705;-75
2022/03/13 02:16:19;;;;;;;6.47;4.63;;;;;;;1.47;41.14;98967.16;5116249;27;43050;-74
2022/03/13 02:18:49;;;;;;;8.10;4.77;;;;;;;1.47;40.72;98976.75;5168162;27;42999;-74
2022/03/13 02:21:17;;;;;;;5.60;3.90;;;;;;;1.43;40.56;98976.81;5151409;27;39942;-75
2022/03/13 02:23:47;;;;;;;7.70;4.40;;;;;;;1.39;40.51;98967.31;5150563;27;42272;-74
2022/03/13 02:26:15;;;;;;;6.50;4.77;;;;;;;1.45;40.47;98987.22;5133329;27;41984;-74
2022/03/13 02:28:51;;;;;;;6.37;4.63;;;;;;;1.43;40.57;98973.34;5133296;27;42299;-74
2022/03/13 02:31:24;;;;;;;7.20;4.07;;;;;;;1.41;40.50;98980.34;5133789;27;39794;-73
2022/03/13 02:33:54;;;;;;;7.07;4.93;;;;;;;1.41;40.62;98996.00;5151463;27;41734;-74
2022/03/13 02:36:30;;;;;;;6.33;5.00;;;;;;;1.26;40.38;98970.25;5153237;27;42475;-75
2022/03/13 02:39:00;;;;;;;8.17;4.03;;;;;;;1.34;40.57;98984.84;5136487;27;41292;-75
2022/03/13 02:41:28;;;;;;;4.67;3.93;;;;;;;1.27;40.55;98982.41;5119801;27;39867;-75
2022/03/13 02:43:56;;;;;;;5.87;4.60;;;;;;;1.20;40.74;98975.63;5155348;27;41867;-74
2022/03/13 02:46:43;;;;;;;6.77;4.70;;;;;;;1.11;40.78;98960.19;5119441;27;41460;-74
2022/03/13 02:49:11;;;;;;;7.30;4.83;;;;;;;1.15;40.79;98977.47;5151665;27;43319;-74
2022/03/13 02:51:39;;;;;;;8.80;4.77;;;;;;;1.10;40.96;98968.91;5154981;27;40894;-74
2022/03/13 02:54:08;;;;;;;6.43;4.17;;;;;;;1.12;41.19;98974.94;5136401;27;41479;-74
2022/03/13 02:56:36;;;;;;;6.40;4.10;;;;;;;1.09;41.18;98975.88;5136749;27;43789;-74
2022/03/13 02:59:04;;;;;;;6.60;4.57;;;;;;;1.09;41.01;98973.28;5154933;27;42326;-74
2022/03/13 03:01:32;;;;;;;8.37;5.00;;;;;;;1.03;41.24;98970.78;5136846;27;42294;-74
2022/03/13 03:04:01;;;;;;;6.33;3.93;;;;;;;1.03;41.28;98968.19;5136144;27;41806;-75
2022/03/13 03:06:31;;;;;;;5.37;4.13;;;;;;;1.01;41.37;98970.81;5118906;27;43534;-75
2022/03/13 03:09:00;;;;;;;9.73;4.50;;;;;;;0.98;41.46;98972.66;5155125;27;42285;-75
2022/03/13 03:11:30;;;;;;;8.37;4.30;;;;;;;0.84;41.30;98948.63;5155052;27;40081;-75
2022/03/13 03:13:57;;;;;;;9.50;4.20;;;;;;;0.91;41.60;98958.03;5119051;27;42344;-74
2022/03/13 03:16:25;;;;;;;6.93;4.07;;;;;;;0.93;42.18;98966.69;5136863;27;42922;-75
2022/03/13 03:18:52;;;;;;;4.87;3.63;;;;;;;0.92;41.68;98971.03;5154215;27;43239;-74
2022/03/13 03:21:20;;;;;;;5.90;3.73;;;;;;;0.91;41.74;98969.31;5135824;27;41925;-75
2022/03/13 03:23:48;;;;;;;8.37;3.93;;;;;;;0.90;41.44;98962.38;5154119;27;42669;-74
2022/03/13 03:26:15;;;;;;;5.40;3.60;;;;;;;0.90;41.75;98957.16;5135898;27;42761;-75
2022/03/13 03:28:45;;;;;;;6.87;4.17;;;;;;;0.90;41.64;98962.38;5135977;27;41205;-75
2022/03/13 03:31:13;;;;;;;5.47;3.73;;;;;;;0.80;41.39;98960.00;5119126;27;38938;-74
2022/03/13 03:33:44;;;;;;;6.00;3.73;;;;;;;0.87;41.42;98967.66;5154258;27;41756;-74
2022/03/13 03:36:14;;;;;;;5.70;3.57;;;;;;;0.86;41.20;98971.19;5154736;27;43799;-74
2022/03/13 03:38:44;;;;;;;6.73;3.73;;;;;;;0.86;41.21;98979.00;5135603;27;40807;-75
2022/03/13 03:41:12;;;;;;;5.50;3.90;;;;;;;0.83;41.35;98971.25;5154536;27;40727;-74
2022/03/13 03:43:41;;;;;;;6.07;3.83;;;;;;;0.76;41.32;98972.25;5135726;27;40511;-74
2022/03/13 03:46:10;;;;;;;6.33;3.43;;;;;;;0.82;41.02;98990.38;5150575;27;43840;-74
2022/03/13 03:48:38;;;;;;;5.80;4.27;;;;;;;0.81;40.86;98987.78;5135283;27;43092;-75
2022/03/13 03:51:06;;;;;;;5.03;3.40;;;;;;;0.78;41.07;98980.88;5154536;27;40040;-74
2022/03/13 03:53:33;;;;;;;5.63;3.77;;;;;;;0.76;40.89;98987.88;5135258;27;42120;-75
2022/03/13 03:56:02;;;;;;;7.47;3.90;;;;;;;0.74;40.62;98987.09;5135351;27;43750;-75
2022/03/13 03:58:29;;;;;;;5.00;3.60;;;;;;;0.72;40.68;98994.06;5135616;27;42677;-73
2022/03/13 04:00:58;;;;;;;5.53;3.37;;;;;;;0.71;40.50;98997.56;5118426;27;39344;-75
2022/03/13 04:03:27;;;;;;;5.63;3.17;;;;;;;0.67;40.62;98995.91;5134856;27;40703;-74
2022/03/13 04:06:00;;;;;;;6.47;3.67;;;;;;;0.66;40.96;98983.75;5150483;27;43783;-75
2022/03/13 04:08:29;;;;;;;7.07;3.30;;;;;;;0.59;40.63;98983.03;5135076;27;42295;-74
2022/03/13 04:10:57;;;;;;;5.80;3.33;;;;;;;0.61;40.55;98996.91;5153911;27;40667;-74
2022/03/13 04:13:24;;;;;;;6.30;3.40;;;;;;;0.60;40.72;98996.94;5135105;27;41877;-75
2022/03/13 04:15:52;;;;;;;6.43;3.87;;;;;;;0.56;40.46;98990.06;5118004;27;41831;-74
2022/03/13 04:18:20;;;;;;;4.70;2.97;;;;;;;0.55;40.41;98993.53;5153674;27;42988;-74
2022/03/13 04:20:49;;;;;;;3.07;2.63;;;;;;;0.44;40.49;98987.69;5170015;27;39923;-75
2022/03/13 04:23:17;;;;;;;6.87;3.40;;;;;;;0.50;40.52;99004.03;5153489;27;42651;-74
2022/03/13 04:25:44;;;;;;;5.03;3.30;;;;;;;0.48;40.78;98995.44;5154018;27;42819;-73
2022/03/13 04:28:12;;;;;;;6.17;4.23;;;;;;;0.46;40.58;98996.34;5134969;27;42615;-74
2022/03/13 04:30:40;;;;;;;3.97;2.67;;;;;;;0.43;40.53;99001.59;5134342;27;39877;-75
2022/03/13 04:33:07;;;;;;;4.80;2.97;;;;;;;0.41;40.52;98995.56;5117447;27;41722;-73
2022/03/13 04:35:35;;;;;;;3.20;2.90;;;;;;;0.39;40.42;99002.53;5135267;27;42670;-74
2022/03/13 04:38:06;;;;;;;5.93;3.23;;;;;;;0.37;40.75;98993.94;5134640;27;42415;-74
2022/03/13 04:40:34;;;;;;;5.57;3.73;;;;;;;0.35;40.83;99000.03;5153664;27;40799;-74
2022/03/13 04:43:02;;;;;;;4.60;3.73;;;;;;;0.34;41.02;98998.28;5134690;27;43200;-74
2022/03/13 04:45:30;;;;;;;6.27;3.87;;;;;;;0.18;40.79;98973.44;5153561;27;42666;-74
2022/03/13 04:47:58;;;;;;;7.27;3.63;;;;;;;0.28;40.59;99003.59;5134441;27;41085;-74
2022/03/13 04:50:25;;;;;;;3.57;2.77;;;;;;;0.26;40.73;98994.09;5169751;27;39936;-74
2022/03/13 04:52:53;;;;;;;5.90;3.83;;;;;;;0.23;40.69;99005.47;5134508;27;41503;-74
2022/03/13 04:55:22;;;;;;;3.70;2.63;;;;;;;0.21;40.71;99004.63;5134902;27;43524;-75
2022/03/13 04:57:50;;;;;;;3.57;3.00;;;;;;;0.18;41.87;98991.66;5134057;27;41486;-73
2022/03/13 05:00:19;;;;;;;6.20;3.50;;;;;;;0.18;41.88;98991.66;5133288;27;39827;-74
2022/03/13 05:02:46;;;;;;;4.40;3.67;;;;;;;0.15;41.50;98993.44;5168925;27;42840;-73
2022/03/13 05:05:15;;;;;;;5.43;3.10;;;;;;;0.15;41.28;98996.91;5152263;27;42820;-74
2022/03/13 05:07:45;;;;;;;4.03;3.30;;;;;;;0.12;41.09;99007.41;5128288;27;42955;-73
2022/03/13 05:10:14;;;;;;;4.57;3.30;;;;;;;0.09;41.09;99004.84;5113749;27;40513;-74
2022/03/13 05:12:44;;;;;;;4.50;2.90;;;;;;;0.09;40.96;99011.81;5132430;27;41540;-74
2022/03/13 05:15:12;;;;;;;5.50;3.20;;;;;;;0.04;40.80;99014.47;5132121;27;42710;-74
2022/03/13 05:17:39;;;;;;;3.37;2.90;;;;;;;0.03;40.59;99015.34;5148690;27;42883;-74
2022/03/13 05:20:08;;;;;;;6.50;2.70;;;;;;;-0.06;40.55;99007.72;5134480;27;40992;-74
2022/03/13 05:22:36;;;;;;;7.47;4.17;;;;;;;-0.05;40.99;99014.66;5133832;27;41774;-74
2022/03/13 05:25:10;;;;;;;5.20;3.30;;;;;;;-0.09;40.79;99023.38;5149710;27;43469;-75
2022/03/13 05:27:44;;;;;;;5.33;3.77;;;;;;;-0.15;40.75;99010.50;5120385;27;43998;-73
2022/03/13 05:30:13;;;;;;;2.93;2.67;;;;;;;-0.16;41.04;99021.78;5113621;27;39357;-73
2022/03/13 05:32:50;;;;;;;4.23;3.23;;;;;;;-0.20;41.01;99025.31;5130272;27;41534;-74
2022/03/13 05:35:18;;;;;;;6.33;3.43;;;;;;;-0.19;41.41;99021.81;5113562;27;41810;-75
2022/03/13 05:37:46;;;;;;;6.03;3.40;;;;;;;-0.20;41.51;99027.91;5095713;27;41416;-74
2022/03/13 05:40:15;;;;;;;4.67;3.07;;;;;;;-0.20;41.45;99020.09;5098344;27;39243;-74
2022/03/13 05:42:46;;;;;;;4.77;3.33;;;;;;;-0.19;41.80;99027.03;5131596;27;41511;-74
2022/03/13 05:45:16;;;;;;;5.23;3.17;;;;;;;-0.18;41.88;99024.41;5110535;27;42428;-75
2022/03/13 05:47:45;;;;;;;3.97;3.03;;;;;;;-0.18;41.50;99026.16;5135133;27;42370;-73
2022/03/13 05:50:13;;;;;;;4.20;2.90;;;;;;;-0.16;41.38;99032.19;5152354;27;41062;-75
2022/03/13 05:52:41;;;;;;;4.50;2.60;;;;;;;-0.19;41.19;99033.09;5133584;27;41835;-73
2022/03/13 05:55:11;;;;;;;4.07;3.30;;;;;;;-0.13;41.00;99043.41;5149238;27;43756;-74
2022/03/13 05:57:39;;;;;;;6.13;3.53;;;;;;;-0.12;40.98;99047.72;5151638;27;43270;-75
2022/03/13 06:00:11;;;;;;;3.93;2.73;;;;;;;-0.11;41.29;99045.97;5131502;27;40968;-74
2022/03/13 06:02:47;;;;;;;3.30;2.87;;;;;;;-0.08;41.37;99041.59;5129999;27;41912;-74
2022/03/13 06:05:18;;;;;;;3.43;2.73;;;;;;;-0.09;41.12;99039.00;5113361;27;43560;-74
2022/03/13 06:07:48;;;;;;;4.53;3.37;;;;;;;-0.01;41.23;99044.97;5129787;27;42248;-74
2022/03/13 06:10:18;;;;;;;5.33;3.10;;;;;;;0.04;41.25;99052.66;5131581;27;40595;-75
2022/03/13 06:12:52;;;;;;;7.27;3.87;;;;;;;0.08;41.44;99047.41;5099206;27;40685;-74
2022/03/13 06:15:22;;;;;;;4.83;3.03;;;;;;;0.08;41.53;99034.38;5116684;27;42494;-74
2022/03/13 06:17:51;;;;;;;6.50;3.87;;;;;;;0.17;42.01;99047.22;5133926;27;42993;-74
2022/03/13 06:20:19;;;;;;;3.40;3.03;;;;;;;0.26;41.53;99052.25;5134728;27;39968;-75
2022/03/13 06:22:48;;;;;;;4.60;3.00;;;;;;;0.25;42.14;99037.50;5133874;27;41772;-74
2022/03/13 06:25:17;;;;;;;4.87;3.33;;;;;;;0.37;42.38;99044.28;5116352;27;42773;-75
2022/03/13 06:27:51;;;;;;;4.87;3.43;;;;;;;0.45;42.21;99046.72;5132914;27;43291;-74
2022/03/13 06:30:19;;;;;;;5.53;3.87;;;;;;;0.54;42.09;99041.34;5099571;27;39224;-75
2022/03/13 06:32:51;;;;;;;4.63;3.87;;;;;;;0.64;42.10;99046.31;5116052;27;41009;-74
2022/03/13 06:35:21;;;;;;;6.17;4.23;;;;;;;0.75;42.01;99055.69;5113310;27;42672;-74
2022/03/13 06:37:54;;;;;;;6.43;3.93;;;;;;;0.86;41.76;99054.59;5114561;27;42156;-76
2022/03/13 06:40:24;;;;;;;6.03;4.03;;;;;;;0.93;42.10;99050.97;5116274;27;41157;-75
2022/03/13 06:42:58;;;;;;;7.10;4.10;;;;;;;1.01;41.86;99053.41;5114873;27;41777;-75
2022/03/13 06:45:27;;;;;;;5.63;3.97;;;;;;;1.12;41.94;99058.38;5102668;27;42764;-73
2022/03/13 06:47:57;;;;;;;5.17;3.43;;;;;;;1.21;41.73;99066.03;5134347;27;43347;-74
2022/03/13 06:50:25;;;;;;;5.27;3.77;;;;;;;1.27;41.30;99060.66;5134881;27;39867;-74
2022/03/13 06:52:55;;;;;;;5.37;3.57;;;;;;;1.47;41.52;99066.31;5134574;27;42423;-75
2022/03/13 06:55:24;;;;;;;5.83;4.00;;;;;;;1.65;41.10;99065.03;5115097;27;41867;-74
2022/03/13 06:57:53;;;;;;;4.83;3.50;;;;;;;2.03;40.66;99061.50;5102919;27;40734;-74
2022/03/13 07:00:21;;;;;;;5.77;4.07;;;;;;;2.77;39.61;99063.88;5115818;27;39275;-74
2022/03/13 07:02:48;;;;;;;5.20;3.40;;;;;;;4.26;37.29;99075.00;5133668;27;42463;-75
2022/03/13 07:05:19;;;;;;;5.63;3.57;;;;;;;5.97;34.86;99088.78;5115680;27;42992;-75
2022/03/13 07:07:47;;;;;;;6.37;3.73;;;;;;;7.45;32.40;99103.44;5114342;27;42764;-74
2022/03/13 07:10:15;;;;;;;5.20;3.80;;;;;;;8.94;30.66;99112.84;5132988;27;39785;-75
2022/03/13 07:12:44;;;;;;;5.50;3.77;;;;;;;10.38;28.80;99114.66;5150252;27;42007;-75
2022/03/13 07:15:13;;;;;;;5.63;4.13;;;;;;;11.70;26.78;99129.63;5115175;27;42704;-74
2022/03/13 07:17:47;;;;;;;5.00;3.80;;;;;;;12.99;25.20;99135.38;5115339;27;41257;-75
2022/03/13 07:20:17;;;;;;;5.33;3.87;;;;;;;14.24;23.70;99138.91;5115422;27;41239;-74
2022/03/13 07:22:49;;;;;;;5.27;4.17;;;;;;;15.90;21.45;99160.91;5114149;27;40668;-74
2022/03/13 07:25:17;;;;;;;7.50;4.90;;;;;;;17.55;20.30;99170.34;5115516;27;41669;-74
2022/03/13 07:27:45;;;;;;;6.10;5.00;;;;;;;19.01;18.64;99176.06;5133378;27;43306;-74
2022/03/13 07:30:14;;;;;;;7.27;4.40;;;;;;;20.25;17.50;99185.81;5098582;27;41104;-74
2022/03/13 07:32:44;;;;;;;5.27;4.30;;;;;;;21.36;16.94;99196.28;5115201;27;42916;-75
2022/03/13 07:35:13;;;;;;;6.40;4.70;;;;;;;22.45;16.63;99201.03;5133156;27;42602;-75
2022/03/13 07:37:45;;;;;;;7.27;5.23;;;;;;;22.51;15.97;99211.16;5131842;27;42292;-75
2022/03/13 07:40:14;;;;;;;4.97;4.10;;;;;;;22.99;15.51;99209.66;5121737;27;38565;-74
2022/03/13 07:42:41;;;;;;;5.53;4.57;;;;;;;21.92;15.96;99216.56;5135780;27;41803;-74
2022/03/13 07:45:11;;;;;;;4.83;4.33;;;;;;;22.22;15.43;99218.81;5133568;27;43789;-74
2022/03/13 07:47:45;;;;;;;4.17;3.83;;;;;;;21.35;15.80;99218.84;5095731;27;41916;-75
2022/03/13 07:50:13;;;;;;;5.40;4.90;;;;;;;19.28;17.17;99218.31;5131593;27;39521;-74
2022/03/13 07:52:41;;;;;;;4.80;4.37;;;;;;;17.62;17.68;99216.19;5152146;27;42681;-74
2022/03/13 07:55:10;;;;;;;4.93;4.17;;;;;;;16.33;18.99;99205.56;5153975;27;43015;-74
2022/03/13 07:57:44;;;;;;;4.63;4.13;;;;;;;15.11;20.11;99193.75;5151316;27;43117;-75
2022/03/13 08:00:15;;;;;;;7.27;4.50;;;;;;;14.45;20.51;99197.81;5135427;27;39910;-74
2022/03/13 08:02:46;;;;;;;8.67;4.10;;;;;;;13.45;21.40;99196.97;5153123;27;41523;-76
2022/03/13 08:05:14;;;;;;;4.47;3.47;;;;;;;12.67;22.25;99182.72;5131998;27;43725;-75
2022/03/13 08:07:42;;;;;;;5.03;4.33;;;;;;;12.26;22.97;99175.63;5147274;27;42699;-75
2022/03/13 08:10:12;;;;;;;5.13;3.40;;;;;;;11.64;22.78;99169.78;5138556;27;41367;-74
2022/03/13 08:12:40;;;;;;;3.80;3.50;;;;;;;11.27;22.61;99176.47;5170980;27;41684;-74
2022/03/13 08:15:09;;;;;;;3.83;3.43;;;;;;;10.91;23.43;99171.56;5117819;27;41778;-75
2022/03/13 08:17:37;;;;;;;4.17;3.13;;;;;;;10.72;23.27;99169.16;5151914;27;43749;-75
2022/03/13 08:20:06;;;;;;;6.23;3.73;;;;;;;10.87;23.14;99178.03;5153251;27;40933;-74
2022/03/13 08:22:33;;;;;;;4.87;3.20;;;;;;;11.78;22.85;99177.78;5151366;27;42819;-75
2022/03/13 08:25:01;;;;;;;5.17;3.80;;;;;;;13.68;21.88;99177.59;5133987;27;43095;-75
2022/03/13 08:27:30;;;;;;;6.27;3.97;;;;;;;15.96;18.74;99196.97;5133549;27;43829;-75
2022/03/13 08:29:59;;;;;;;5.10;3.90;;;;;;;18.18;16.57;99213.94;5152882;27;39956;-74
2022/03/13 08:32:27;;;;;;;6.37;3.90;;;;;;;20.72;15.28;99216.19;5115901;27;41319;-75
2022/03/13 08:34:54;;;;;;;5.17;4.33;;;;;;;22.72;13.68;99228.78;5133563;27;42529;-75
2022/03/13 08:37:22;;;;;;;5.10;4.60;;;;;;;23.33;12.96;99204.13;5134324;27;41766;-75
2022/03/13 08:39:50;;;;;;;5.67;4.13;;;;;;;22.60;13.37;99233.66;5153304;27;40056;-74
2022/03/13 08:42:18;;;;;;;4.90;4.40;;;;;;;22.72;13.25;99209.91;5133971;27;40749;-75
2022/03/13 08:44:47;;;;;;;4.30;3.90;;;;;;;24.52;12.56;99234.03;5117558;27;41922;-74
2022/03/13 08:47:21;;;;;;;6.13;4.70;;;;;;;26.17;11.77;99235.25;5131306;27;43098;-74
2022/03/13 08:49:50;;;;;;;4.87;4.43;;;;;;;27.47;10.73;99250.72;5134540;27;40788;-75
2022/03/13 08:52:18;;;;;;;4.60;4.20;;;;;;;28.79;10.05;99235.41;5134090;27;41733;-76
2022/03/13 08:54:45;;;;;;;5.20;4.77;;;;;;;29.97;9.68;99239.44;5153153;27;42715;-75
2022/03/13 08:57:14;;;;;;;5.07;4.57;;;;;;;30.84;9.17;99258.16;5118553;27;41530;-77
2022/03/13 08:59:41;;;;;;;4.43;4.10;;;;;;;30.97;8.89;99241.69;5136444;27;40996;-75
2022/03/13 09:02:11;;;;;;;5.03;4.63;;;;;;;31.27;8.66;99233.78;5134208;27;41853;-76
2022/03/13 09:04:45;;;;;;;4.40;4.00;;;;;;;31.41;8.88;99245.47;5153532;27;42860;-77
2022/03/13 09:07:13;;;;;;;5.10;4.70;;;;;;;30.40;8.62;99252.63;5119784;27;42016;-76
2022/03/13 09:09:41;;;;;;;5.03;4.50;;;;;;;28.60;10.12;99236.94;5149207;27;41159;-76
2022/03/13 09:12:10;;;;;;;4.60;4.20;;;;;;;28.71;9.55;99232.78;5133787;27;42385;-76
2022/03/13 09:14:39;;;;;;;5.77;4.70;;;;;;;29.77;8.94;99231.22;5133552;27;42701;-77
2022/03/13 09:17:06;;;;;;;5.20;4.70;;;;;;;30.59;8.57;99235.34;5115176;27;40580;-76
2022/03/13 09:19:36;;;;;;;4.60;4.20;;;;;;;31.11;8.66;99230.72;5134294;27;39025;-75
2022/03/13 09:22:04;;;;;;;4.55;4.15;;;;;;;29.92;9.12;99225.56;5133759;27;41104;-76
2022/03/13 09:24:33;;;;;;;5.33;4.83;;;;;;;29.19;9.19;99225.44;5152398;27;43859;-77
2022/03/13 09:27:00;;;;;;;5.30;4.73;;;;;;;28.89;9.47;99219.50;5133699;27;42729;-76
2022/03/13 09:29:28;;;;;;;5.37;4.20;;;;;;;28.29;9.74;99219.38;5152494;27;39931;-77
2022/03/13 09:31:56;;;;;;;5.37;4.87;;;;;;;28.14;9.66;99217.59;5115906;27;41414;-75
2022/03/13 09:34:24;;;;;;;4.90;4.40;;;;;;;28.64;9.93;99215.59;5151927;27;43740;-74
2022/03/13 09:37:00;;;;;;;5.03;4.53;;;;;;;28.28;9.58;99212.25;5127280;27;42098;-75
2022/03/13 09:39:29;;;;;;;4.53;4.13;;;;;;;27.03;10.34;99217.41;5150685;27;39947;-75
2022/03/13 09:41:58;;;;;;;5.03;4.40;;;;;;;25.62;11.00;99205.78;5116405;27;40940;-75
2022/03/13 09:44:26;;;;;;;4.70;4.30;;;;;;;25.25;11.48;99201.13;5133770;27;42785;-75
2022/03/13 09:46:55;;;;;;;4.93;4.50;;;;;;;25.06;11.82;99191.63;5133104;27;41457;-73
2022/03/13 09:49:24;;;;;;;6.37;4.63;;;;;;;24.54;11.59;99197.66;5133302;27;38750;-74
2022/03/13 09:51:52;;;;;;;4.47;4.07;;;;;;;24.24;12.52;99195.72;5133485;27;42704;-76
2022/03/13 09:54:22;;;;;;;5.50;4.50;;;;;;;24.65;12.01;99199.13;5133211;27;42813;-75
2022/03/13 09:56:49;;;;;;;5.13;4.63;;;;;;;24.73;11.90;99192.81;5132133;27;42812;-75
2022/03/13 09:59:18;;;;;;;8.67;4.47;;;;;;;23.90;11.86;99195.97;5151970;27;41478;-76
2022/03/13 10:01:45;;;;;;;6.50;4.53;;;;;;;22.95;13.20;99183.13;5152001;27;42501;-76
2022/03/13 10:04:13;;;;;;;5.50;4.90;;;;;;;22.97;13.42;99165.75;5151652;27;42500;-75
2022/03/13 10:07:06;;;;;;;5.13;4.63;;;;;;;23.46;12.89;99165.75;5151268;27;42462;-77
2022/03/13 10:09:44;;;;;;;6.13;4.83;;;;;;;22.73;13.20;99146.78;5115945;27;39731;-77
2022/03/13 10:12:13;;;;;;;5.27;4.77;;;;;;;22.92;13.11;99168.94;5151574;27;42343;-77
2022/03/13 10:15:00;;;;;;;5.93;5.03;;;;;;;23.34;12.28;99167.97;5133414;27;42862;-76
2022/03/13 10:17:29;;;;;;;5.53;4.50;;;;;;;23.75;13.07;99160.66;5133024;27;42427;-76
2022/03/13 10:20:14;;;;;;;5.83;4.73;;;;;;;23.73;12.65;99165.44;5133210;27;39342;-77
2022/03/13 10:22:42;;;;;;;6.53;4.93;;;;;;;23.64;12.84;99151.06;5129434;27;42287;-77
2022/03/13 10:25:18;;;;;;;5.10;4.30;;;;;;;24.49;12.77;99156.69;5151374;27;42752;-76
2022/03/13 10:27:48;;;;;;;5.40;4.40;;;;;;;25.45;11.82;99155.41;5115226;27;43879;-77
2022/03/13 10:30:17;;;;;;;5.30;4.80;;;;;;;25.56;11.74;99160.38;5132073;27;39305;-75
2022/03/13 10:32:57;;;;;;;5.47;4.97;;;;;;;25.25;11.78;99150.47;5132319;27;41695;-75
2022/03/13 10:35:24;;;;;;;4.87;4.37;;;;;;;25.30;12.39;99137.22;5130023;27;42627;-76
2022/03/13 10:37:58;;;;;;;5.80;4.57;;;;;;;26.12;12.68;99137.22;5131382;27;42156;-76
2022/03/13 10:40:36;;;;;;;7.77;4.53;;;;;;;26.98;11.59;99143.72;5131770;27;39788;-76
2022/03/13 10:43:07;;;;;;;5.43;4.87;;;;;;;28.15;11.00;99145.72;5132046;27;41801;-77
2022/03/13 10:45:39;;;;;;;5.73;5.07;;;;;;;29.48;9.99;99142.38;5133062;27;41823;-76
2022/03/13 10:48:32;;;;;;;6.50;4.73;;;;;;;30.41;9.48;99156.75;5147887;27;42006;-77
2022/03/13 10:51:02;;;;;;;5.07;4.57;;;;;;;31.97;9.44;99157.00;5113477;27;40521;-75
2022/03/13 10:53:30;;;;;;;5.18;4.68;;;;;;;33.65;8.53;99155.16;5130569;27;42492;-77
2022/03/13 10:56:16;;;;;;;5.15;4.65;;;;;;;35.02;7.61;99171.97;5146199;27;43390;-76
2022/03/13 10:58:48;;;;;;;5.05;4.65;;;;;;;35.92;7.25;99155.41;5147853;27;41252;-76
2022/03/13 11:01:17;;;;;;;5.43;4.93;;;;;;;36.85;7.39;99147.25;5152047;27;39639;-79
2022/03/13 11:03:51;;;;;;;5.22;4.82;;;;;;;37.60;6.70;99149.94;5134147;27;40647;-77
2022/03/13 11:06:22;;;;;;;5.22;4.82;;;;;;;38.03;6.86;99143.38;5149781;27;43692;-76
2022/03/13 11:08:52;;;;;;;5.13;4.70;;;;;;;38.80;6.38;99159.28;5134188;27;42204;-78
2022/03/13 11:11:22;;;;;;;5.22;4.72;;;;;;;39.34;6.76;99142.22;5152993;27;40247;-79
2022/03/13 11:13:52;;;;;;;4.75;4.45;;;;;;;40.02;6.12;99148.31;5134854;27;40595;-77
2022/03/13 11:16:23;;;;;;;4.78;4.30;;;;;;;40.49;6.06;99135.97;5135751;27;41792;-77
2022/03/13 11:18:53;;;;;;;5.00;4.60;;;;;;;40.63;5.30;99142.59;5136142;27;42962;-76
2022/03/13 11:21:21;;;;;;;4.72;4.32;;;;;;;39.73;6.05;99133.34;5153758;27;40087;-74
2022/03/13 11:23:57;;;;;;;5.47;4.97;;;;;;;39.84;6.56;99119.19;5118333;27;42481;-77
2022/03/13 11:26:30;;;;;;;5.00;4.60;;;;;;;40.59;5.80;99130.38;5154434;27;43221;-76
2022/03/13 11:29:00;;;;;;;5.60;5.10;;;;;;;41.35;5.51;99115.22;5151178;27;42305;-80
2022/03/13 11:31:28;;;;;;;5.05;4.65;;;;;;;41.64;5.25;99118.06;5135852;27;39155;-77
2022/03/13 11:34:13;;;;;;;4.88;4.57;;;;;;;42.06;5.51;99109.81;5118912;27;40279;-76
2022/03/13 11:36:42;;;;;;;4.65;4.25;;;;;;;42.61;4.94;99118.66;5136816;27;41576;-77
2022/03/13 11:39:13;;;;;;;4.55;4.22;;;;;;;42.82;4.96;99117.25;5152166;27;41850;-73
2022/03/13 11:41:46;;;;;;;5.20;4.80;;;;;;;43.17;4.97;99107.50;5183503;27;41830;-78
2022/03/13 11:44:43;;;;;;;4.70;4.30;;;;;;;42.75;5.12;99108.41;5136346;27;40827;-78
2022/03/13 11:47:22;;;;;;;5.18;4.78;;;;;;;41.40;5.47;99090.97;5072423;28;45104;-80
2022/03/13 11:49:50;;;;;;;5.63;5.10;;;;;;;38.90;6.45;99092.00;5126017;27;42216;-79
2022/03/13 11:52:29;;;;;;;5.72;5.22;;;;;;;36.67;6.83;99085.78;5135135;27;38669;-76